createdAt,value
2018-03-25T00:02:02.312Z,98940.69
2018-03-25T00:05:03.573Z,98943.60
2018-03-25T00:08:04.838Z,98936.86
2018-03-25T00:11:06.116Z,98948.63
2018-03-25T00:14:07.394Z,98948.88
2018-03-25T00:17:08.649Z,98949.70
2018-03-25T00:20:09.913Z,98938.59
2018-03-25T00:23:11.167Z,98948.92
2018-03-25T00:26:12.420Z,98944.43
2018-03-25T00:29:13.674Z,98942.18
2018-03-25T00:32:14.931Z,98944.03
2018-03-25T00:35:16.262Z,98938.48
2018-03-25T00:38:17.498Z,98940.73
2018-03-25T00:41:18.748Z,98942.92
2018-03-25T00:44:19.984Z,98934.27
2018-03-25T00:47:21.242Z,98943.15
2018-03-25T00:50:23.251Z,98949.50
2018-03-25T00:53:24.521Z,98940.96
2018-03-25T00:56:25.772Z,98950.23
2018-03-25T00:59:27.045Z,98946.00
2018-03-25T01:02:31.294Z,98948.70
2018-03-25T01:05:32.573Z,98946.25
2018-03-25T01:08:33.831Z,98950.51
2018-03-25T01:11:35.838Z,98949.88
2018-03-25T01:14:37.812Z,98954.00
2018-03-25T01:17:39.066Z,98952.91
2018-03-25T01:20:40.386Z,98947.86
2018-03-25T01:23:41.671Z,98945.45
2018-03-25T01:26:42.911Z,98936.43
2018-03-25T01:29:44.143Z,98945.98
2018-03-25T01:32:46.136Z,98934.42
2018-03-25T01:35:48.147Z,98939.90
2018-03-25T01:38:49.423Z,98938.92
2018-03-25T01:41:50.652Z,98943.74
2018-03-25T01:44:51.910Z,98909.78
2018-03-25T01:47:53.155Z,98935.70
2018-03-25T01:50:55.140Z,98946.80
2018-03-25T01:53:57.132Z,98951.03
2018-03-25T01:56:58.498Z,98938.50
2018-03-25T01:59:59.821Z,98938.12
2018-03-25T02:03:01.093Z,98933.98
2018-03-25T02:06:02.379Z,98945.05
2018-03-25T02:09:04.391Z,98941.41
2018-03-25T02:12:05.648Z,98937.10
2018-03-25T02:15:06.906Z,98929.62
2018-03-25T02:18:08.176Z,98945.52
2018-03-25T02:21:09.418Z,98943.72
2018-03-25T02:24:11.411Z,98945.05
2018-03-25T02:27:12.665Z,98956.28
2018-03-25T02:30:13.969Z,98940.92
2018-03-25T02:33:15.215Z,98951.75
2018-03-25T02:36:16.481Z,98953.70
2018-03-25T02:39:17.715Z,98952.36
2018-03-25T02:42:19.726Z,98955.85
2018-03-25T02:45:20.961Z,98949.59
2018-03-25T02:48:22.305Z,98952.80
2018-03-25T02:51:24.321Z,98950.91
2018-03-25T02:54:25.586Z,98967.73
2018-03-25T02:57:26.854Z,98968.69
2018-03-25T03:00:28.112Z,98964.21
2018-03-25T03:03:29.345Z,98971.55
2018-03-25T03:06:31.366Z,98967.30
2018-03-25T03:09:32.640Z,98974.13
2018-03-25T03:12:33.886Z,98973.34
2018-03-25T03:15:35.190Z,98980.55
2018-03-25T03:18:36.414Z,98980.84
2018-03-25T03:21:37.689Z,98982.46
2018-03-25T03:24:38.946Z,98989.45
2018-03-25T03:27:40.271Z,98990.57
2018-03-25T03:30:42.241Z,98990.45
2018-03-25T03:33:44.251Z,98993.25
2018-03-25T03:36:45.488Z,98989.91
2018-03-25T03:39:46.724Z,98990.36
2018-03-25T03:42:47.975Z,98990.05
2018-03-25T03:45:49.274Z,98991.54
2018-03-25T03:48:50.531Z,98996.34
2018-03-25T03:51:51.770Z,99004.55
2018-03-25T03:54:53.035Z,99003.42
2018-03-25T03:57:54.294Z,98998.71
2018-03-25T04:00:55.548Z,99008.67
2018-03-25T04:03:56.772Z,99008.80
2018-03-25T04:06:58.737Z,99007.91
2018-03-25T04:10:00.742Z,99014.50
2018-03-25T04:13:02.006Z,99015.84
2018-03-25T04:16:03.318Z,99013.89
2018-03-25T04:19:04.588Z,99018.61
2018-03-25T04:22:05.950Z,99014.61
2018-03-25T04:25:07.201Z,99017.72
2018-03-25T04:28:08.460Z,99019.48
2018-03-25T04:31:09.717Z,99019.77
2018-03-25T04:34:10.970Z,99024.16
2018-03-25T04:37:12.227Z,99025.03
2018-03-25T04:40:13.486Z,99024.02
2018-03-25T04:43:14.750Z,99025.81
2018-03-25T04:46:16.007Z,99016.13
2018-03-25T04:49:17.262Z,99014.30
2018-03-25T04:52:18.539Z,99017.05
2018-03-25T04:55:19.790Z,99015.42
2018-03-25T04:58:21.043Z,99014.30
2018-03-25T05:01:22.352Z,99018.20
2018-03-25T05:04:23.620Z,99024.22
2018-03-25T05:07:24.843Z,99021.20
2018-03-25T05:10:26.188Z,99021.52
2018-03-25T05:13:28.254Z,99036.91
2018-03-25T05:16:29.536Z,99035.57
2018-03-25T05:19:31.534Z,99037.08
2018-03-25T05:22:32.772Z,99037.30
2018-03-25T05:25:41.666Z,99041.95
2018-03-25T05:28:42.895Z,99038.54
2018-03-25T05:31:44.883Z,99049.10
2018-03-25T05:34:46.144Z,99052.67
2018-03-25T05:37:47.414Z,99044.99
2018-03-25T05:40:48.662Z,99048.08
2018-03-25T05:43:50.698Z,99049.20
2018-03-25T05:46:51.963Z,99060.91
2018-03-25T05:49:53.233Z,99062.50
2018-03-25T05:52:54.459Z,99063.55
2018-03-25T05:55:55.759Z,99061.28
2018-03-25T05:58:57.014Z,99068.23
2018-03-25T06:01:58.260Z,99064.41
2018-03-25T06:04:59.508Z,99069.39
2018-03-25T06:08:07.703Z,99075.33
2018-03-25T06:11:09.740Z,99060.39
2018-03-25T06:14:11.026Z,99075.15
2018-03-25T06:17:12.282Z,99085.95
2018-03-25T06:20:13.541Z,99090.45
2018-03-25T06:23:14.792Z,99090.96
2018-03-25T06:26:16.028Z,99096.35
2018-03-25T06:29:17.260Z,99099.67
2018-03-25T06:32:19.283Z,99093.39
2018-03-25T06:35:20.535Z,99105.22
2018-03-25T06:38:21.784Z,99111.11
2018-03-25T06:41:23.809Z,99104.88
2018-03-25T06:44:25.053Z,99111.85
2018-03-25T06:47:26.294Z,99105.83
2018-03-25T06:50:27.580Z,99120.57
2018-03-25T06:53:28.865Z,99120.25
2018-03-25T06:56:30.178Z,99120.69
2018-03-25T06:59:32.172Z,99126.33
2018-03-25T07:02:34.489Z,99128.95
2018-03-25T07:05:35.729Z,99132.30
2018-03-25T07:08:36.996Z,99133.78
2018-03-25T07:11:38.239Z,99139.01
2018-03-25T07:14:40.305Z,99142.02
2018-03-25T07:17:42.304Z,99148.27
2018-03-25T07:20:44.290Z,99163.87
2018-03-25T07:23:45.536Z,99156.80
2018-03-25T07:26:47.514Z,99162.30
2018-03-25T07:29:49.522Z,99152.69
2018-03-25T07:32:50.767Z,99162.61
2018-03-25T07:35:52.780Z,99175.31
2018-03-25T07:38:54.008Z,99180.00
2018-03-25T07:41:56.088Z,99180.98
2018-03-25T07:44:58.079Z,99189.66
2018-03-25T07:47:59.356Z,99188.33
2018-03-25T07:51:00.629Z,99180.34
2018-03-25T07:54:01.900Z,99186.36
2018-03-25T07:57:03.199Z,99192.33
2018-03-25T08:00:04.447Z,99196.45
2018-03-25T08:03:05.745Z,99192.22
2018-03-25T08:06:07.777Z,99194.31
2018-03-25T08:09:09.091Z,99193.86
2018-03-25T08:12:11.071Z,99202.13
2018-03-25T08:15:13.091Z,99195.86
2018-03-25T08:18:14.352Z,99200.11
2018-03-25T08:21:15.680Z,99201.78
2018-03-25T08:24:17.742Z,99211.78
2018-03-25T08:27:19.000Z,99210.33
2018-03-25T08:30:20.261Z,99206.44
2018-03-25T08:33:21.623Z,99215.24
2018-03-25T08:36:22.860Z,99211.64
2018-03-25T08:39:24.127Z,99216.32
2018-03-25T08:42:25.411Z,99208.80
2018-03-25T08:45:26.667Z,99229.16
2018-03-25T08:48:27.946Z,99230.98
2018-03-25T08:51:29.222Z,99233.78
2018-03-25T08:54:31.245Z,99226.61
2018-03-25T08:57:32.480Z,99228.29
2018-03-25T09:00:34.471Z,99239.42
2018-03-25T09:03:35.738Z,99233.56
2018-03-25T09:06:37.129Z,99229.22
2018-03-25T09:09:39.102Z,99231.73
2018-03-25T09:12:40.366Z,99229.78
2018-03-25T09:15:41.627Z,99222.84
2018-03-25T09:18:42.898Z,99219.75
2018-03-25T09:21:44.199Z,99220.22
2018-03-25T09:24:45.445Z,99216.46
2018-03-25T09:27:46.778Z,99229.59
2018-03-25T09:30:48.040Z,99220.78
2018-03-25T09:33:49.315Z,99229.89
2018-03-25T09:36:50.559Z,99231.83
2018-03-25T09:39:51.819Z,99227.88
2018-03-25T09:42:53.066Z,99234.12
2018-03-25T09:45:55.111Z,99239.55
2018-03-25T09:48:56.384Z,99235.44
2018-03-25T09:51:58.363Z,99237.82
2018-03-25T09:54:59.634Z,99246.77
2018-03-25T09:58:00.987Z,99243.72
2018-03-25T10:01:08.408Z,99254.66
2018-03-25T10:04:09.685Z,99253.74
2018-03-25T10:07:10.951Z,99260.53
2018-03-25T10:10:20.108Z,99262.59
2018-03-25T10:13:22.156Z,99256.66
2018-03-25T10:16:23.412Z,99266.34
2018-03-25T10:19:24.660Z,99268.77
2018-03-25T10:22:25.930Z,99266.25
2018-03-25T10:25:27.188Z,99269.25
2018-03-25T10:28:29.278Z,99275.42
2018-03-25T10:31:30.561Z,99272.08
2018-03-25T10:34:31.841Z,99266.20
2018-03-25T10:37:34.041Z,99270.83
2018-03-25T10:40:36.075Z,99276.80
2018-03-25T10:43:37.346Z,99282.06
2018-03-25T10:46:38.642Z,99272.20
2018-03-25T10:49:40.655Z,99276.48
2018-03-25T10:52:41.900Z,99275.44
2018-03-25T10:55:43.880Z,99275.38
2018-03-25T10:58:45.899Z,99272.35
2018-03-25T11:01:47.147Z,99276.99
2018-03-25T11:04:48.407Z,99278.84
2018-03-25T11:07:49.663Z,99280.36
2018-03-25T11:10:50.916Z,99274.73
2018-03-25T11:13:52.186Z,99279.02
2018-03-25T11:16:53.428Z,99279.59
2018-03-25T11:19:55.414Z,99286.47
2018-03-25T11:22:57.450Z,99275.09
2018-03-25T11:25:58.731Z,99282.80
2018-03-25T11:28:59.993Z,99262.95
2018-03-25T11:32:01.267Z,99272.20
2018-03-25T11:35:02.586Z,99287.09
2018-03-25T11:38:03.874Z,99276.92
2018-03-25T11:41:05.187Z,99282.11
2018-03-25T11:44:06.435Z,99274.98
2018-03-25T11:47:08.438Z,99281.31
2018-03-25T11:50:09.685Z,99288.08
2018-03-25T11:53:11.683Z,99291.59
2018-03-25T11:56:12.984Z,99297.05
2018-03-25T11:59:14.258Z,99291.28
2018-03-25T12:02:15.615Z,99285.31
2018-03-25T12:05:16.880Z,99291.70
2018-03-25T12:08:18.144Z,99288.33
2018-03-25T12:11:19.397Z,99285.05
2018-03-25T12:14:20.656Z,99280.04
2018-03-25T12:17:21.915Z,99284.75
2018-03-25T12:20:23.163Z,99293.78
2018-03-25T12:23:24.409Z,99287.50
2018-03-25T12:26:25.706Z,99295.97
2018-03-25T12:29:26.959Z,99291.26
2018-03-25T12:32:28.247Z,99292.86
2018-03-25T12:35:29.527Z,99288.80
2018-03-25T12:38:30.768Z,99286.64
2018-03-25T12:41:32.015Z,99298.80
2018-03-25T12:44:33.274Z,99297.16
2018-03-25T12:47:34.549Z,99294.80
2018-03-25T12:50:35.810Z,99286.56
2018-03-25T12:53:37.051Z,99300.80
2018-03-25T12:56:38.338Z,99292.16
2018-03-25T12:59:39.599Z,99291.44
2018-03-25T13:02:40.838Z,99297.82
2018-03-25T13:05:42.115Z,99294.61
2018-03-25T13:08:43.359Z,99289.84
2018-03-25T13:11:44.631Z,99297.81
2018-03-25T13:14:45.879Z,99296.63
2018-03-25T13:17:47.876Z,99288.47
2018-03-25T13:20:49.144Z,99289.66
2018-03-25T13:23:50.380Z,99293.31
2018-03-25T13:26:52.449Z,99286.18
2018-03-25T13:29:53.697Z,99288.77
2018-03-25T13:32:55.167Z,99292.64
2018-03-25T13:35:56.439Z,99285.58
2018-03-25T13:38:57.715Z,99284.41
2018-03-25T13:41:59.733Z,99288.92
2018-03-25T13:45:00.965Z,99288.00
2018-03-25T13:48:02.990Z,99282.06
2018-03-25T13:51:04.270Z,99286.58
2018-03-25T13:54:05.625Z,99292.89
2018-03-25T13:57:06.871Z,99295.67
2018-03-25T14:00:08.133Z,99295.25
2018-03-25T14:03:09.429Z,99290.39
2018-03-25T14:06:10.930Z,99298.33
2018-03-25T14:09:12.915Z,99288.20
2018-03-25T14:12:14.915Z,99287.90
2018-03-25T14:15:16.187Z,99293.65
2018-03-25T14:18:17.604Z,99297.59
2018-03-25T14:21:18.927Z,99298.53
2018-03-25T14:24:20.154Z,99298.41
2018-03-25T14:27:22.169Z,99301.48
2018-03-25T14:30:23.395Z,99298.81
2018-03-25T14:33:25.371Z,99302.91
2018-03-25T14:36:27.413Z,99297.73
2018-03-25T14:39:28.632Z,99306.16
2018-03-25T14:42:29.835Z,99303.75
2018-03-25T14:45:31.079Z,99307.32
2018-03-25T14:48:32.302Z,99303.00
2018-03-25T14:51:34.306Z,99301.81
2018-03-25T14:54:35.552Z,99302.93
2018-03-25T14:57:37.538Z,99310.96
2018-03-25T15:00:39.510Z,99309.95
2018-03-25T15:03:41.515Z,99316.14
2018-03-25T15:06:42.778Z,99312.00
2018-03-25T15:09:44.032Z,99312.12
2018-03-25T15:12:45.275Z,99313.64
2018-03-25T15:15:47.308Z,99318.30
2018-03-25T15:18:48.587Z,99320.83
2018-03-25T15:21:49.847Z,99323.73
2018-03-25T15:24:51.108Z,99311.31
2018-03-25T15:27:52.365Z,99323.13
2018-03-25T15:30:53.608Z,99320.97
2018-03-25T15:34:01.904Z,99324.67
2018-03-25T15:37:18.878Z,99322.74
2018-03-25T15:40:20.134Z,99325.91
2018-03-25T15:43:21.401Z,99340.39
2018-03-25T15:46:22.661Z,99338.42
2018-03-25T15:49:23.884Z,99340.92
2018-03-25T15:52:25.870Z,99335.47
2018-03-25T15:55:28.449Z,99341.28
2018-03-25T15:58:30.891Z,99347.38
2018-03-25T16:01:32.246Z,99356.57
2018-03-25T16:04:33.490Z,99342.57
2018-03-25T16:07:34.756Z,99356.48
2018-03-25T16:10:36.031Z,99357.55
2018-03-25T16:13:37.274Z,99354.91
2018-03-25T16:16:39.244Z,99351.33
2018-03-25T16:19:41.258Z,99355.56
2018-03-25T16:22:42.876Z,99357.08
2018-03-25T16:25:44.159Z,99359.12
2018-03-25T16:28:46.165Z,99377.34
2018-03-25T16:31:47.425Z,99374.94
2018-03-25T16:34:48.686Z,99382.83
2018-03-25T16:37:49.932Z,99381.77
2018-03-25T16:40:51.912Z,99379.08
2018-03-25T16:43:53.955Z,99380.78
2018-03-25T16:46:55.947Z,99378.26
2018-03-25T16:49:57.249Z,99381.17
2018-03-25T16:52:58.517Z,99398.33
2018-03-25T16:55:59.775Z,99401.79
2018-03-25T16:59:01.825Z,99398.36
2018-03-25T17:02:03.101Z,99396.13
2018-03-25T17:05:04.383Z,99400.95
2018-03-25T17:08:06.403Z,99408.69
2018-03-25T17:11:07.637Z,99413.81
2018-03-25T17:14:08.864Z,99417.42
2018-03-25T17:17:10.131Z,99417.97
2018-03-25T17:20:11.401Z,99420.58
2018-03-25T17:23:13.408Z,99425.03
2018-03-25T17:26:14.718Z,99422.37
2018-03-25T17:29:16.026Z,99429.86
2018-03-25T17:32:18.036Z,99437.56
2018-03-25T17:35:19.294Z,99434.85
2018-03-25T17:38:20.539Z,99442.81
2018-03-25T17:41:21.776Z,99441.50
2018-03-25T17:44:23.023Z,99451.98
2018-03-25T17:47:24.296Z,99455.45
2018-03-25T17:50:25.647Z,99455.50
2018-03-25T17:53:27.121Z,99460.41
2018-03-25T17:56:28.357Z,99463.45
2018-03-25T17:59:29.632Z,99459.84
2018-03-25T18:02:32.851Z,99467.81
2018-03-25T18:05:38.488Z,99470.15
2018-03-25T18:08:40.419Z,99470.33
2018-03-25T18:11:42.125Z,99479.70
2018-03-25T18:14:43.449Z,99482.94
2018-03-25T18:17:45.201Z,99496.66
2018-03-25T18:20:56.294Z,99494.03
2018-03-25T18:23:48.558Z,99498.09
2018-03-25T18:26:50.380Z,99502.27
2018-03-25T18:29:51.619Z,99507.75
2018-03-25T18:32:52.902Z,99509.90
2018-03-25T18:35:54.218Z,99508.05
2018-03-25T18:38:56.417Z,99515.92
2018-03-25T18:41:57.810Z,99513.89
2018-03-25T18:45:00.992Z,99523.78
2018-03-25T18:48:03.836Z,99524.36
2018-03-25T18:51:07.164Z,99525.73
2018-03-25T18:54:08.550Z,99533.75
2018-03-25T18:57:10.480Z,99536.41
2018-03-25T19:00:13.549Z,99536.30
2018-03-25T19:03:15.345Z,99540.27
2018-03-25T19:06:16.964Z,99544.48
2018-03-25T19:09:18.877Z,99552.89
2018-03-25T19:12:21.666Z,99558.66
2018-03-25T19:15:22.936Z,99556.75
2018-03-25T19:18:25.197Z,99561.48
2018-03-25T19:21:26.751Z,99564.61
2018-03-25T19:24:28.906Z,99556.96
2018-03-25T19:27:30.202Z,99565.09
2018-03-25T19:30:32.880Z,99572.17
2018-03-25T19:33:34.199Z,99564.59
2018-03-25T19:36:36.079Z,99554.48
2018-03-25T19:39:37.346Z,99576.92
2018-03-25T19:42:38.667Z,99569.40
2018-03-25T19:45:40.860Z,99565.62
2018-03-25T19:48:42.483Z,99561.19
2018-03-25T19:51:44.111Z,99571.31
2018-03-25T19:54:46.350Z,99566.00
2018-03-25T19:57:49.384Z,99571.36
2018-03-25T20:00:51.711Z,99580.14
2018-03-25T20:03:54.487Z,99578.59
2018-03-25T20:06:56.328Z,99577.27
2018-03-25T20:09:59.259Z,99590.62
2018-03-25T20:13:01.397Z,99583.46
2018-03-25T20:16:02.676Z,99588.87
2018-03-25T20:19:04.013Z,99584.16
2018-03-25T20:22:07.020Z,99592.19
2018-03-25T20:25:08.839Z,99591.31
2018-03-25T20:28:11.396Z,99599.58
2018-03-25T20:31:13.648Z,99591.67
2018-03-25T20:34:16.163Z,99596.88
2018-03-25T20:37:18.586Z,99596.70
2018-03-25T20:40:19.849Z,99600.50
2018-03-25T20:43:21.308Z,99602.69
2018-03-25T20:46:24.237Z,99594.58
2018-03-25T20:49:27.468Z,99608.33
2018-03-25T20:52:28.783Z,99603.44
2018-03-25T20:55:30.522Z,99604.68
2018-03-25T20:58:31.942Z,99607.52
2018-03-25T21:01:34.032Z,99611.60
2018-03-25T21:04:35.815Z,99611.77
2018-03-25T21:07:37.229Z,99617.65
2018-03-25T21:10:38.832Z,99612.63
2018-03-25T21:13:41.563Z,99614.13
2018-03-25T21:16:42.844Z,99621.74
2018-03-25T21:19:44.541Z,99619.81
2018-03-25T21:22:46.518Z,99616.70
2018-03-25T21:25:49.312Z,99620.22
2018-03-25T21:28:50.753Z,99618.59
2018-03-25T21:31:52.220Z,99613.13
2018-03-25T21:34:55.481Z,99617.66
2018-03-25T21:37:58.115Z,99628.77
2018-03-25T21:41:00.574Z,99623.18
2018-03-25T21:44:02.988Z,99627.41
2018-03-25T21:47:05.067Z,99630.69
2018-03-25T21:50:07.150Z,99627.41
2018-03-25T21:53:09.275Z,99631.30
2018-03-25T21:56:10.555Z,99630.09
2018-03-25T21:59:11.871Z,99634.31
2018-03-25T22:02:14.673Z,99635.28
2018-03-25T22:05:16.732Z,99638.91
2018-03-25T22:08:18.036Z,99637.05
2018-03-25T22:11:19.353Z,99637.39
2018-03-25T22:14:20.720Z,99638.86
2018-03-25T22:17:22.033Z,99633.52
2018-03-25T22:20:23.423Z,99634.84
2018-03-25T22:23:24.732Z,99636.83
2018-03-25T22:26:27.070Z,99635.20
2018-03-25T22:29:28.411Z,99640.97
2018-03-25T22:32:29.654Z,99638.68
2018-03-25T22:35:31.671Z,99643.08
2018-03-25T22:38:33.019Z,99646.92
2018-03-25T22:41:34.310Z,99638.19
2018-03-25T22:44:35.604Z,99651.75
2018-03-25T22:47:36.864Z,99644.42
2018-03-25T22:50:38.284Z,99639.17
2018-03-25T22:53:39.609Z,99645.64
2018-03-25T22:56:40.892Z,99645.24
2018-03-25T22:59:42.957Z,99649.53
2018-03-25T23:02:44.237Z,99649.10
2018-03-25T23:05:46.219Z,99656.38
2018-03-25T23:08:49.115Z,99655.50
2018-03-25T23:11:51.126Z,99649.92
2018-03-25T23:14:52.412Z,99653.14
2018-03-25T23:17:53.691Z,99661.65
2018-03-25T23:20:55.006Z,99658.20
2018-03-25T23:23:56.377Z,99657.58
2018-03-25T23:26:57.660Z,99656.88
2018-03-25T23:29:58.923Z,99658.78
2018-03-25T23:33:00.198Z,99650.84
2018-03-25T23:36:01.478Z,99655.25
2018-03-25T23:39:02.792Z,99652.52
2018-03-25T23:42:04.105Z,99659.67
2018-03-25T23:45:05.425Z,99662.67
2018-03-25T23:48:06.743Z,99652.88
2018-03-25T23:51:08.432Z,99661.74
2018-03-25T23:54:09.716Z,99658.25
2018-03-25T23:57:11.796Z,99660.96
